메인 페이지
METAR-TAF:

METAR-TAF

공항 :

야프 국제공항

야프 섬, 미크로네시아

위도: 09-29N, 경도: 138-05E, 고도: 28m

현재 날씨관측

예보는 51분 전, 15:50시(UTC)에 발표되었습니다.
여러 방향의 바람 6kt
온도 27°C
습도 94%
기압 1002 hPa
시정: 16.1km
고도 1600ft 상공 구름 보통, 타워링 적운.
고도 13000ft 상공 구름 많음
고도 30000ft 상공 흐림
약한소나기

METAR: PTYA 151550Z VRB06KT 10SM -SHRA SCT016TCU BKN130 OVC300 27/26 A2959 RMK SHRAB10E25B40 TCU ALQDS SLP022 T02710255

시각: 02:41 (16:41 UTC)

예보

예보는 5 시간 21분 전, 11:20시(UTC)에 발표되었습니다.
예보 대상 시간: 15일 12시부터 16일 12시까지 (UTC)
서북서11kt
시정: 10km
고도 1600ft 상공 구름 조금
고도 3000ft 상공 구름 보통
고도 13000ft 상공 구름 보통
시계 내 소나기

TAF: PTYA 151120Z 1512/1612 30011KT P6SM VCSH FEW016 SCT030 SCT130

4,000개 이상의 공항 관측 자료 및 예보 (METAR 및 TAF 보고).

지도상에서 검색 가능한 기상관측소가 노란 점과 빨간 점으로 표시되어 있습니다.

기상관측소 명을 보려면 표시 위로 마우스를 이동하세요.

날씨 관측과 예보를 보려면 클릭하세요.

지도 변경 : 확대하려면 엑스 표시가 있는 녹색 버튼, 축소하려면 빼기 표시가 있는 녹색 버튼, 다음 페이지의 지도를 보려면 녹색 화살표를 클릭하세요.


METAR-TAF: